Time;durP1;ratioP1;P1;durP2;ratioP2;P2;SDS_P1;SDS_P2;PMS_P1;PMS_P2;Temp;Humidity;BMP_temperature;BMP_pressure;BME280_temperature;BME280_humidity;BME280_pressure;Samples;Min_cycle;Max_cycle;Signal;HPM_P1;HPM_P2
2023/05/22 00:00:14;;;;;;;;;15.33;10.67;;;;;18.95;52.47;101114.09;5010066;28;52877;-68
2023/05/22 00:02:42;;;;;;;;;11.67;11.00;;;;;18.94;52.41;101123.13;5011915;28;45507;-68
2023/05/22 00:05:13;;;;;;;;;10.67;8.67;;;;;18.92;52.18;101122.22;5011414;28;45194;-68
2023/05/22 00:07:40;;;;;;;;;14.67;11.67;;;;;18.90;52.33;101118.63;5000436;28;45393;-68
2023/05/22 00:10:06;;;;;;;;;10.33;8.67;;;;;18.85;52.37;101117.72;4999524;28;45497;-68
2023/05/22 00:12:32;;;;;;;;;13.33;12.00;;;;;18.85;52.50;101118.63;4996710;28;45548;-68
2023/05/22 00:14:57;;;;;;;;;13.00;10.67;;;;;18.77;52.41;101104.16;4995649;28;45475;-69
2023/05/22 00:17:25;;;;;;;;;10.33;10.33;;;;;18.77;52.70;101113.19;5000484;28;47036;-70
2023/05/22 00:19:52;;;;;;;;;12.33;10.33;;;;;18.76;52.99;101115.91;5000404;28;45298;-68
2023/05/22 00:22:18;;;;;;;;;12.33;9.67;;;;;18.73;52.34;101107.81;4998036;28;45270;-68
2023/05/22 00:24:43;;;;;;;;;11.00;7.67;;;;;18.66;52.50;101095.16;4998291;28;45406;-69
2023/05/22 00:27:08;;;;;;;;;9.67;9.00;;;;;18.76;52.49;101110.50;5000509;28;46494;-69
2023/05/22 00:29:34;;;;;;;;;13.67;11.33;;;;;18.74;52.77;101112.28;4999388;28;54555;-69
2023/05/22 00:31:59;;;;;;;;;8.33;7.33;;;;;18.67;52.53;101105.97;4996428;28;45443;-69
2023/05/22 00:34:25;;;;;;;;;12.33;11.67;;;;;18.71;52.96;101113.22;4993661;28;45590;-68
2023/05/22 00:36:50;;;;;;;;;13.67;12.67;;;;;18.70;52.48;101105.97;4982741;28;46357;-69
2023/05/22 00:39:15;;;;;;;;;10.33;9.00;;;;;18.70;52.54;101110.50;5000738;28;45616;-68
2023/05/22 00:41:41;;;;;;;;;17.00;8.33;;;;;18.67;52.21;101105.97;4979955;28;45423;-75
2023/05/22 00:44:06;;;;;;;;;10.33;10.00;;;;;18.72;52.49;101114.09;5003618;28;45373;-68
2023/05/22 00:46:32;;;;;;;;;15.33;10.00;;;;;18.69;52.43;101114.09;4999217;28;46333;-69
2023/05/22 00:48:57;;;;;;;;;12.00;9.33;;;;;18.69;52.33;101112.31;5000587;28;45417;-68
2023/05/22 00:51:23;;;;;;;;;12.00;11.00;;;;;18.65;52.33;101106.91;4998634;28;45223;-68
2023/05/22 00:53:49;;;;;;;;;12.00;10.33;;;;;18.69;52.31;101116.81;4997197;28;45610;-69
2023/05/22 00:56:16;;;;;;;;;11.33;9.00;;;;;18.70;52.31;101115.91;5002193;28;45500;-71
2023/05/22 00:58:41;;;;;;;;;10.67;8.67;;;;;18.72;52.21;101115.00;5001396;28;45621;-68
2023/05/22 01:01:10;;;;;;;;;15.67;12.00;;;;;18.58;52.32;101079.84;5001341;28;45273;-68
2023/05/22 01:03:43;;;;;;;;;13.67;10.67;;;;;18.43;52.25;101055.53;5001319;28;45451;-69
2023/05/22 01:06:09;;;;;;;;;9.33;8.33;;;;;18.78;51.92;101093.34;4995049;28;46080;-69
2023/05/22 01:08:35;;;;;;;;;9.00;9.00;;;;;18.65;52.20;101060.91;4996646;28;45388;-68
2023/05/22 01:11:09;;;;;;;;;13.67;12.33;;;;;18.73;52.18;101091.56;4997673;28;45428;-69
2023/05/22 01:13:37;;;;;;;;;16.33;12.00;;;;;18.77;52.17;101091.53;4996196;28;45348;-69
2023/05/22 01:16:11;;;;;;;;;10.00;10.00;;;;;18.71;51.90;101102.38;4996859;28;46354;-68
2023/05/22 01:18:53;;;;;;;;;9.67;9.00;;;;;18.67;52.19;101091.56;4990917;28;45478;-68
2023/05/22 01:21:28;;;;;;;;;16.33;13.00;;;;;18.62;51.95;101090.66;4998930;28;45533;-69
2023/05/22 01:24:00;;;;;;;;;14.67;10.00;;;;;18.62;52.16;101096.09;5000048;28;45535;-69
2023/05/22 01:26:43;;;;;;;;;15.33;10.33;;;;;18.60;52.40;101093.38;4997225;28;46364;-67
2023/05/22 01:29:30;;;;;;;;;11.00;8.33;;;;;18.59;52.11;101102.38;4998454;28;45506;-69
2023/05/22 01:31:58;;;;;;;;;15.00;10.67;;;;;18.53;52.24;101097.00;4997712;28;45261;-68
2023/05/22 01:34:25;;;;;;;;;11.33;9.67;;;;;18.40;52.46;101079.88;4997174;28;45443;-68
2023/05/22 01:36:52;;;;;;;;;9.33;8.33;;;;;18.26;52.12;101074.44;4996679;28;45487;-67
2023/05/22 01:39:18;;;;;;;;;12.00;10.33;;;;;18.38;52.55;101089.81;4998902;28;45443;-67
2023/05/22 01:41:43;;;;;;;;;11.67;10.33;;;;;18.41;52.46;101092.47;4994868;28;45475;-69
2023/05/22 01:44:08;;;;;;;;;10.67;9.33;;;;;18.37;52.72;101086.16;4996334;28;45630;-68
2023/05/22 01:46:34;;;;;;;;;8.33;8.33;;;;;18.43;52.47;101093.41;4995084;28;46943;-68
2023/05/22 01:48:59;;;;;;;;;11.33;9.67;;;;;18.34;52.49;101075.34;4998099;28;45476;-69
2023/05/22 01:51:35;;;;;;;;;12.00;10.67;;;;;18.37;52.62;101074.47;4994976;28;45736;-68
2023/05/22 01:54:05;;;;;;;;;12.33;7.33;;;;;18.30;52.50;101073.56;4996927;28;45567;-68
2023/05/22 01:56:40;;;;;;;;;10.33;9.33;;;;;18.36;52.45;101091.56;4994805;28;46580;-68
2023/05/22 01:59:31;;;;;;;;;9.67;7.00;;;;;18.27;52.67;101097.00;4994624;28;45400;-68
2023/05/22 02:02:04;;;;;;;;;9.67;7.67;;;;;18.28;52.60;101094.31;4999359;28;45451;-68
2023/05/22 02:04:31;;;;;;;;;10.00;7.33;;;;;18.29;52.59;101092.50;4996385;28;45517;-69
2023/05/22 02:06:59;;;;;;;;;11.67;10.67;;;;;18.24;52.41;101079.84;4979288;28;47111;-67
2023/05/22 02:09:29;;;;;;;;;12.33;8.67;;;;;18.22;52.38;101092.47;4998903;28;45442;-67
2023/05/22 02:11:56;;;;;;;;;12.00;8.33;;;;;18.26;52.38;101089.78;4995096;28;45369;-67
2023/05/22 02:14:23;;;;;;;;;11.33;10.33;;;;;18.19;52.71;101095.19;4977419;28;45305;-68
2023/05/22 02:16:49;;;;;;;;;8.67;8.33;;;;;18.19;52.40;101103.28;4987835;28;46202;-68
2023/05/22 02:19:15;;;;;;;;;12.00;10.00;;;;;18.11;52.69;101099.69;4994071;28;45407;-69
2023/05/22 02:21:40;;;;;;;;;12.33;11.00;;;;;17.98;52.51;101076.25;4995825;28;45454;-68
2023/05/22 02:24:06;;;;;;;;;9.33;7.67;;;;;17.94;52.49;101075.34;4976051;28;45367;-69
2023/05/22 02:26:31;;;;;;;;;27.50;22.25;;;;;18.06;53.02;101096.06;4975527;28;46172;-68
2023/05/22 02:28:57;;;;;;;;;11.33;8.67;;;;;18.04;52.55;101104.19;4975951;28;45280;-70
2023/05/22 02:31:22;;;;;;;;;15.00;10.67;;;;;18.02;52.89;101097.00;4974753;28;45573;-69
2023/05/22 02:33:47;;;;;;;;;10.00;9.67;;;;;17.77;52.90;101053.66;4977564;28;45593;-68
2023/05/22 02:36:13;;;;;;;;;11.00;9.33;;;;;18.01;52.96;101096.06;4974616;28;45986;-69
2023/05/22 02:38:39;;;;;;;;;7.67;7.67;;;;;17.75;52.77;101054.53;4976073;28;45349;-68
2023/05/22 02:41:04;;;;;;;;;15.67;10.00;;;;;17.92;53.32;101079.84;4975848;28;45495;-69
2023/05/22 02:43:30;;;;;;;;;9.67;9.67;;;;;17.96;52.72;101091.56;4974100;28;45546;-68
2023/05/22 02:45:55;;;;;;;;;12.67;9.33;;;;;17.90;53.00;101095.16;4973669;28;62973;-68
2023/05/22 02:48:21;;;;;;;;;9.67;9.67;;;;;17.88;52.83;101094.25;4975006;28;45684;-68
2023/05/22 02:50:48;;;;;;;;;11.33;9.00;;;;;17.88;53.23;101087.94;4974591;28;45499;-68
2023/05/22 02:53:14;;;;;;;;;12.33;9.67;;;;;17.84;53.08;101087.00;4975929;28;45246;-69
2023/05/22 02:55:42;;;;;;;;;13.33;11.67;;;;;17.84;53.18;101085.19;4978463;28;46038;-70
2023/05/22 02:58:10;;;;;;;;;10.67;10.33;;;;;17.82;53.02;101091.53;4976355;28;45358;-68
2023/05/22 03:00:36;;;;;;;;;14.00;12.67;;;;;17.73;53.57;101081.56;4983538;28;45177;-68
2023/05/22 03:03:02;;;;;;;;;10.67;10.00;;;;;17.69;53.47;101074.38;4979664;28;45397;-67
2023/05/22 03:05:28;;;;;;;;;14.00;10.67;;;;;17.77;52.90;101088.81;4976849;28;45899;-68
2023/05/22 03:07:53;;;;;;;;;17.75;15.25;;;;;17.69;53.42;101082.47;4976196;28;45273;-68
2023/05/22 03:10:19;;;;;;;;;18.25;15.00;;;;;17.78;52.61;101101.38;4974958;28;45486;-68
2023/05/22 03:12:44;;;;;;;;;13.67;12.33;;;;;17.68;53.15;101091.47;4975026;28;45318;-67
2023/05/22 03:15:10;;;;;;;;;16.00;10.67;;;;;17.61;53.50;101077.03;4956464;28;47517;-69
2023/05/22 03:17:35;;;;;;;;;13.33;12.33;;;;;17.72;53.40;101105.88;4968614;28;45317;-70
2023/05/22 03:20:01;;;;;;;;;17.00;10.33;;;;;17.58;53.33;101082.44;4978215;28;45289;-68
2023/05/22 03:22:26;;;;;;;;;13.33;12.33;;;;;17.60;53.54;101094.13;4978993;28;45646;-69
2023/05/22 03:24:52;;;;;;;;;5.00;3.33;;;;;17.50;53.92;101073.41;4989975;28;46426;-68
2023/05/22 03:27:19;;;;;;;;;9.67;9.33;;;;;17.53;53.59;101084.22;4999106;28;45396;-69
2023/05/22 03:29:44;;;;;;;;;13.00;10.00;;;;;17.57;53.45;101090.53;4975587;28;45420;-68
2023/05/22 03:32:09;;;;;;;;;13.67;10.00;;;;;17.63;53.91;101096.84;4994082;28;45407;-70
2023/05/22 03:34:35;;;;;;;;;13.67;11.33;;;;;17.58;53.56;101090.53;4975477;28;46043;-68
2023/05/22 03:37:00;;;;;;;;;10.33;10.33;;;;;17.32;53.96;101049.94;4993613;28;45455;-68
2023/05/22 03:39:26;;;;;;;;;11.67;10.67;;;;;17.62;53.80;101097.78;4993769;28;45349;-67
2023/05/22 03:41:51;;;;;;;;;15.00;11.67;;;;;17.43;54.33;101072.47;4992669;28;45400;-67
2023/05/22 03:44:16;;;;;;;;;10.33;8.00;;;;;17.54;54.20;101093.22;4993320;28;45648;-68
2023/05/22 03:46:42;;;;;;;;;11.67;9.00;;;;;17.53;54.22;101096.84;4993901;28;49421;-69
2023/05/22 03:49:07;;;;;;;;;10.33;10.33;;;;;17.50;53.82;101087.84;4993720;28;45593;-68
2023/05/22 03:51:32;;;;;;;;;8.00;7.67;;;;;17.24;54.26;101035.50;4994048;28;45624;-67
2023/05/22 03:53:58;;;;;;;;;11.67;11.67;;;;;17.44;53.97;101081.47;5006028;28;50365;-69
2023/05/22 03:56:23;;;;;;;;;15.67;10.33;;;;;17.46;54.30;101087.81;5009301;28;45541;-68
2023/05/22 03:58:49;;;;;;;;;11.33;9.67;;;;;17.23;54.35;101060.72;4997616;28;45657;-67
2023/05/22 04:01:15;;;;;;;;;10.00;10.00;;;;;17.35;54.14;101084.16;4997353;28;45552;-67
2023/05/22 04:03:41;;;;;;;;;10.33;9.33;;;;;17.40;54.61;101104.88;4996898;28;46258;-67
2023/05/22 04:06:07;;;;;;;;;12.00;8.67;;;;;17.28;54.37;101089.53;4996993;28;45473;-67
2023/05/22 04:08:32;;;;;;;;;10.67;8.67;;;;;17.39;54.51;101110.28;5001172;28;45549;-67
2023/05/22 04:10:57;;;;;;;;;12.33;9.33;;;;;17.36;54.64;101107.59;4996941;28;45417;-68
2023/05/22 04:13:23;;;;;;;;;15.33;12.00;;;;;17.41;54.63;101122.00;4996750;28;45557;-67
2023/05/22 04:15:49;;;;;;;;;23.50;19.75;;;;;17.37;54.65;101117.47;4996687;28;45392;-68
2023/05/22 04:18:14;;;;;;;;;16.00;15.50;;;;;17.31;54.55;101118.38;4975591;28;45438;-67
2023/05/22 04:20:41;;;;;;;;;13.75;12.25;;;;;17.31;54.81;101115.66;4996339;28;45404;-67
2023/05/22 04:23:07;;;;;;;;;18.00;13.67;;;;;17.28;54.84;101121.94;4978739;28;46170;-68
2023/05/22 04:25:33;;;;;;;;;16.75;13.50;;;;;17.19;54.37;101097.59;4996353;28;45496;-67
2023/05/22 04:28:01;;;;;;;;;14.50;12.75;;;;;17.36;54.64;101119.28;4996580;28;45490;-67
2023/05/22 04:30:27;;;;;;;;;18.50;13.50;;;;;17.30;54.63;101119.25;4979032;28;45610;-67
2023/05/22 04:32:52;;;;;;;;;18.00;15.00;;;;;17.31;54.70;101113.84;4995911;28;46420;-68
2023/05/22 04:35:18;;;;;;;;;15.75;14.25;;;;;17.29;54.62;101121.06;4996252;28;45458;-69
2023/05/22 04:37:47;;;;;;;;;14.33;13.00;;;;;17.35;54.60;101117.47;4996144;28;45619;-70
2023/05/22 04:40:14;;;;;;;;;13.33;13.33;;;;;17.40;54.48;101120.19;4996689;28;45225;-69
2023/05/22 04:42:39;;;;;;;;;20.25;15.50;;;;;17.39;54.66;101127.41;4996942;28;46260;-68
2023/05/22 04:45:05;;;;;;;;;62.00;47.00;;;;;17.39;54.72;101123.78;4996006;28;45445;-68
2023/05/22 04:47:31;;;;;;;;;32.00;28.50;;;;;17.44;54.33;101132.78;4996106;28;45448;-68
2023/05/22 04:49:57;;;;;;;;;20.25;18.75;;;;;17.43;54.11;101126.50;5005550;28;45416;-67
2023/05/22 04:52:23;;;;;;;;;31.25;25.75;;;;;17.45;53.97;101122.00;4977184;28;47838;-68
2023/05/22 04:54:50;;;;;;;;;11.25;10.75;;;;;17.46;53.82;101131.91;4995917;28;45455;-68
2023/05/22 04:57:16;;;;;;;;;17.75;14.75;;;;;17.44;54.31;101131.03;4977634;28;45723;-70
2023/05/22 04:59:41;;;;;;;;;13.33;13.33;;;;;17.49;54.22;101147.25;4989613;28;45438;-68
2023/05/22 05:02:07;;;;;;;;;11.33;11.00;;;;;17.47;54.21;101141.84;5001831;28;45551;-68
2023/05/22 05:04:33;;;;;;;;;13.67;12.00;;;;;17.47;54.72;101143.63;5000112;28;45439;-68
2023/05/22 05:06:58;;;;;;;;;12.00;11.33;;;;;17.27;54.68;101112.06;4996466;28;45453;-69
2023/05/22 05:09:24;;;;;;;;;17.00;12.67;;;;;17.45;54.60;101143.59;4996798;28;45418;-67
2023/05/22 05:11:50;;;;;;;;;13.00;12.00;;;;;17.39;54.36;101139.97;4996730;28;45478;-67
2023/05/22 05:14:16;;;;;;;;;16.00;13.50;;;;;17.38;54.41;101146.31;4997214;28;45532;-68
2023/05/22 05:16:45;;;;;;;;;16.25;15.25;;;;;17.21;54.36;101113.78;4996663;28;45462;-70
2023/05/22 05:19:11;;;;;;;;;28.00;24.50;;;;;17.41;54.13;101144.50;4995706;28;45459;-70
2023/05/22 05:21:37;;;;;;;;;17.33;16.00;;;;;17.35;54.91;101130.97;4996059;28;46393;-68
2023/05/22 05:24:02;;;;;;;;;19.50;16.25;;;;;17.41;54.56;101139.09;4995921;28;45368;-67
2023/05/22 05:26:28;;;;;;;;;16.67;15.67;;;;;17.41;54.75;101135.50;4978325;28;45348;-69
2023/05/22 05:28:55;;;;;;;;;18.00;13.33;;;;;17.24;54.74;101111.09;4979587;28;45365;-69
2023/05/22 05:31:21;;;;;;;;;16.00;13.00;;;;;17.28;54.52;101126.44;5001921;28;46473;-66
2023/05/22 05:33:47;;;;;;;;;15.50;11.50;;;;;17.20;54.86;101101.19;4990472;28;45293;-70
2023/05/22 05:36:13;;;;;;;;;40.00;33.75;;;;;17.25;55.03;101111.13;5002397;28;45729;-68
2023/05/22 05:38:38;;;;;;;;;22.50;20.25;;;;;17.37;54.61;101126.47;4999208;28;45622;-69
2023/05/22 05:41:04;;;;;;;;;18.25;16.75;;;;;17.36;55.18;101130.09;4982840;28;47647;-70
2023/05/22 05:43:30;;;;;;;;;14.67;14.67;;;;;17.35;55.09;101120.16;5009376;28;45427;-68
2023/05/22 05:45:56;;;;;;;;;14.75;14.00;;;;;17.45;54.87;101129.22;4994111;28;45206;-68
2023/05/22 05:48:21;;;;;;;;;16.00;14.00;;;;;17.48;55.04;101134.63;5005521;28;45382;-69
2023/05/22 05:50:46;;;;;;;;;11.00;11.00;;;;;17.54;54.79;101133.75;4994778;28;53709;-68
2023/05/22 05:53:12;;;;;;;;;35.75;26.50;;;;;17.61;54.51;101130.19;4981686;28;45483;-69
2023/05/22 05:55:37;;;;;;;;;21.25;15.75;;;;;17.65;54.51;101137.38;4994665;28;45562;-67
2023/05/22 05:58:03;;;;;;;;;13.00;12.67;;;;;17.53;54.84;101111.22;4995250;28;45520;-71
2023/05/22 06:00:28;;;;;;;;;17.67;13.67;;;;;17.47;54.51;101117.53;4994396;28;45984;-70
2023/05/22 06:02:53;;;;;;;;;12.67;10.33;;;;;17.54;54.94;101125.63;4995695;28;45554;-69
2023/05/22 06:05:19;;;;;;;;;14.00;11.00;;;;;17.41;54.92;101095.88;4985230;28;45570;-69
2023/05/22 06:07:44;;;;;;;;;11.00;10.67;;;;;17.50;54.79;101113.91;4995195;28;45603;-73
2023/05/22 06:10:11;;;;;;;;;15.00;12.67;;;;;17.41;55.11;101095.88;5005157;28;47794;-71
2023/05/22 06:12:36;;;;;;;;;16.33;14.33;;;;;17.61;54.88;101124.78;5010656;28;45122;-74
2023/05/22 06:15:08;;;;;;;;;20.75;16.75;;;;;17.61;54.71;101122.97;5008858;28;45295;-71
2023/05/22 06:17:35;;;;;;;;;63.25;47.75;;;;;17.36;54.54;101069.78;5012122;28;45012;-71
2023/05/22 06:20:01;;;;;;;;;33.25;25.00;;;;;17.74;55.09;101131.13;4997403;28;46103;-72
2023/05/22 06:22:28;;;;;;;;;22.00;17.00;;;;;17.78;54.69;101124.81;4998021;28;45490;-71
2023/05/22 06:24:53;;;;;;;;;13.50;13.50;;;;;17.65;54.22;101116.69;4996111;28;45378;-73
2023/05/22 06:27:22;;;;;;;;;15.67;13.33;;;;;17.61;54.69;101109.47;4994786;28;45599;-80
2023/05/22 06:29:49;;;;;;;;;13.67;9.67;;;;;17.83;54.73;101139.25;4971398;28;46955;-74
2023/05/22 06:32:15;;;;;;;;;12.67;12.00;;;;;17.91;54.47;101144.72;4994341;28;45444;-69
2023/05/22 06:34:43;;;;;;;;;14.33;12.67;;;;;17.97;54.00;101140.22;4993831;28;45372;-71
2023/05/22 06:37:09;;;;;;;;;18.00;14.67;;;;;18.01;54.20;101138.44;4976804;28;45499;-71
2023/05/22 06:39:34;;;;;;;;;15.67;13.00;;;;;17.92;54.21;101117.69;4993711;28;45495;-68
2023/05/22 06:42:00;;;;;;;;;18.50;16.50;;;;;18.18;53.79;101149.25;4993745;28;45388;-69
2023/05/22 06:44:25;;;;;;;;;14.67;11.00;;;;;18.23;53.64;101152.88;4994324;28;45431;-68
2023/05/22 06:46:51;;;;;;;;;20.25;18.00;;;;;18.28;53.62;101140.28;4994548;28;45317;-70
2023/05/22 06:49:17;;;;;;;;;21.00;16.00;;;;;18.26;53.34;101143.88;4994794;28;46173;-70
2023/05/22 06:51:43;;;;;;;;;18.00;15.00;;;;;18.32;53.12;101152.91;4993796;28;45301;-69
2023/05/22 06:54:11;;;;;;;;;18.00;13.67;;;;;18.28;53.39;101136.66;4993944;28;45455;-67
2023/05/22 06:56:36;;;;;;;;;16.67;12.00;;;;;18.47;53.27;101152.00;4994223;28;46366;-69
2023/05/22 06:59:02;;;;;;;;;18.33;12.33;;;;;18.54;52.91;101152.91;4993522;28;46236;-68
2023/05/22 07:01:28;;;;;;;;;15.67;14.00;;;;;18.50;52.87;101137.59;4993523;28;45520;-71
2023/05/22 07:03:56;;;;;;;;;17.00;15.00;;;;;18.58;52.66;101154.72;5007301;28;45318;-69
2023/05/22 07:06:23;;;;;;;;;20.33;15.67;;;;;18.38;53.05;101119.56;5009282;28;45453;-69
2023/05/22 07:08:49;;;;;;;;;16.75;14.50;;;;;18.57;53.08;101144.78;5003522;28;46298;-70
2023/05/22 07:11:14;;;;;;;;;27.00;21.25;;;;;18.50;52.72;101124.94;5002710;28;45452;-68
2023/05/22 07:13:39;;;;;;;;;20.67;16.33;;;;;18.73;52.63;101154.72;5000153;28;45403;-70
2023/05/22 07:16:05;;;;;;;;;22.00;17.67;;;;;18.80;52.23;101152.91;4997287;28;45447;-71
2023/05/22 07:18:31;;;;;;;;;17.33;15.00;;;;;18.76;52.34;101132.16;4975709;28;48228;-71
2023/05/22 07:20:57;;;;;;;;;17.00;15.00;;;;;18.95;52.28;101158.31;4993182;28;45450;-71
2023/05/22 07:23:22;;;;;;;;;20.25;16.75;;;;;19.04;52.05;101151.06;4995918;28;45361;-70
2023/05/22 07:25:48;;;;;;;;;16.67;12.00;;;;;19.12;51.88;101154.66;4993912;28;45526;-70
2023/05/22 07:28:13;;;;;;;;;15.00;12.67;;;;;19.06;51.85;101133.03;4995335;28;45451;-70
2023/05/22 07:30:38;;;;;;;;;11.67;11.67;;;;;19.26;51.67;101166.38;4978154;28;45656;-72
2023/05/22 07:33:04;;;;;;;;;12.33;12.33;;;;;19.34;51.35;101161.84;5003779;28;45867;-70
2023/05/22 07:35:30;;;;;;;;;21.33;16.00;;;;;19.45;51.13;101169.03;4997428;28;45728;-71
2023/05/22 07:37:56;;;;;;;;;20.67;19.67;;;;;19.41;51.13;101172.66;4996651;28;45938;-69
2023/05/22 07:40:21;;;;;;;;;20.67;15.67;;;;;19.32;51.44;101158.25;4996982;28;45365;-69
2023/05/22 07:42:46;;;;;;;;;15.00;14.33;;;;;19.39;51.07;101160.94;5003484;28;45460;-69
2023/05/22 07:45:12;;;;;;;;;14.67;12.33;;;;;19.21;51.31;101161.88;5006743;28;45490;-71
2023/05/22 07:47:37;;;;;;;;;17.67;16.00;;;;;19.17;51.75;101165.50;5003215;28;45414;-71
2023/05/22 07:50:03;;;;;;;;;11.00;8.67;;;;;19.24;51.49;101170.00;5000105;28;45352;-69
2023/05/22 07:52:30;;;;;;;;;16.00;13.67;;;;;19.32;51.33;101179.91;4996864;28;45602;-69
2023/05/22 07:54:56;;;;;;;;;21.00;16.67;;;;;19.29;51.40;101182.63;5005012;28;45458;-69
2023/05/22 07:57:22;;;;;;;;;19.00;14.50;;;;;19.31;51.77;101179.91;4997930;28;46037;-66
2023/05/22 07:59:47;;;;;;;;;19.00;14.67;;;;;19.30;51.57;101157.34;4996175;28;45475;-67
2023/05/22 08:02:13;;;;;;;;;12.33;10.33;;;;;19.46;51.18;101178.97;5004958;28;45352;-67
2023/05/22 08:04:39;;;;;;;;;13.33;11.33;;;;;19.45;51.21;101159.09;4984845;28;45400;-68
2023/05/22 08:07:05;;;;;;;;;21.67;18.00;;;;;19.56;51.08;101169.00;4996560;28;45394;-67
2023/05/22 08:09:30;;;;;;;;;19.50;16.00;;;;;19.59;51.37;101152.72;5002511;28;45491;-67
2023/05/22 08:11:55;;;;;;;;;17.67;17.33;;;;;19.75;50.87;101170.75;4996270;28;45556;-69
2023/05/22 08:14:21;;;;;;;;;18.33;16.67;;;;;19.87;50.53;101184.25;5004537;28;45384;-67
2023/05/22 08:16:47;;;;;;;;;19.67;16.00;;;;;19.94;50.30;101181.50;4989193;28;47723;-67
2023/05/22 08:19:13;;;;;;;;;21.67;19.33;;;;;19.94;50.63;101182.41;5008276;28;45131;-68
2023/05/22 08:21:39;;;;;;;;;16.00;14.00;;;;;19.95;50.46;101180.59;5000551;28;45540;-68
2023/05/22 08:24:06;;;;;;;;;23.33;18.00;;;;;19.93;50.31;101182.41;4982566;28;45479;-68
2023/05/22 08:26:32;;;;;;;;;14.33;12.67;;;;;19.98;50.66;101183.28;4993889;28;45419;-68
2023/05/22 08:28:58;;;;;;;;;23.67;14.33;;;;;20.00;49.96;101186.91;4997484;28;45227;-68
2023/05/22 08:31:24;;;;;;;;;21.33;17.00;;;;;20.01;50.52;101192.31;4997905;28;45258;-68
2023/05/22 08:33:49;;;;;;;;;14.67;13.00;;;;;20.02;50.62;101174.22;5000705;28;45462;-70
2023/05/22 08:36:15;;;;;;;;;13.00;10.67;;;;;20.13;50.32;101185.91;4999348;28;45641;-69
2023/05/22 08:38:40;;;;;;;;;10.33;7.67;;;;;20.22;50.19;101185.84;4996835;28;45442;-69
2023/05/22 08:41:06;;;;;;;;;12.33;10.67;;;;;20.24;49.81;101178.63;4996539;28;45380;-70
2023/05/22 08:43:32;;;;;;;;;15.33;13.33;;;;;20.39;49.88;101196.59;4998128;28;45565;-70
2023/05/22 08:46:05;;;;;;;;;18.67;17.67;;;;;20.46;49.43;101188.41;4990291;28;45448;-65
2023/05/22 08:48:31;;;;;;;;;23.25;22.25;;;;;20.30;49.38;101160.50;4996583;28;45329;-65
2023/05/22 08:51:04;;;;;;;;;20.67;19.00;;;;;20.53;49.55;101188.34;4997399;28;45396;-66
2023/05/22 08:53:35;;;;;;;;;10.67;9.67;;;;;20.58;48.96;101191.03;4998651;28;45367;-64
2023/05/22 08:56:02;;;;;;;;;15.00;12.00;;;;;20.64;49.44;101184.66;5000444;28;46166;-65
2023/05/22 08:58:28;;;;;;;;;16.00;11.00;;;;;20.80;49.34;101180.91;4997370;28;45252;-67
2023/05/22 09:00:54;;;;;;;;;14.67;12.67;;;;;20.90;48.84;101192.59;4997909;28;45494;-67
2023/05/22 09:03:21;;;;;;;;;12.67;10.33;;;;;21.01;48.99;101192.50;5002273;28;45504;-66
2023/05/22 09:05:48;;;;;;;;;14.33;13.67;;;;;21.07;48.57;101197.84;4978278;28;47570;-67
2023/05/22 09:08:14;;;;;;;;;12.67;10.33;;;;;21.11;48.71;101196.94;4997254;28;45416;-67
2023/05/22 09:10:39;;;;;;;;;19.33;19.33;;;;;21.12;48.41;101193.31;4996887;28;45410;-67
2023/05/22 09:13:08;;;;;;;;;17.67;13.67;;;;;21.14;48.42;101184.22;5000077;28;45006;-67
2023/05/22 09:15:37;;;;;;;;;14.67;12.67;;;;;21.27;48.72;101200.41;4998148;28;46365;-67
2023/05/22 09:18:05;;;;;;;;;11.67;11.67;;;;;21.33;48.23;101198.50;4979206;28;45504;-67
2023/05/22 09:20:36;;;;;;;;;15.00;13.67;;;;;21.43;48.45;101195.66;4999046;28;45391;-67
2023/05/22 09:23:10;;;;;;;;;18.67;14.33;;;;;21.31;48.12;101188.56;5000262;28;45440;-67
2023/05/22 09:25:35;;;;;;;;;15.67;11.00;;;;;21.37;48.48;101196.66;4995472;28;46516;-67
2023/05/22 09:28:00;;;;;;;;;22.00;15.67;;;;;21.44;48.43;101195.66;4977204;28;45498;-66
2023/05/22 09:30:25;;;;;;;;;16.00;16.00;;;;;21.48;48.73;101189.31;4995296;28;45381;-66
2023/05/22 09:32:51;;;;;;;;;22.67;20.00;;;;;21.64;48.36;101206.31;4995274;28;46825;-66
2023/05/22 09:35:17;;;;;;;;;21.67;13.67;;;;;21.74;48.11;101201.69;4996649;28;46095;-67
2023/05/22 09:37:43;;;;;;;;;38.25;32.25;;;;;21.85;47.67;101197.00;4996930;28;45569;-67
2023/05/22 09:40:13;;;;;;;;;23.00;18.67;;;;;21.98;47.42;101207.75;4997329;28;45440;-66
2023/05/22 09:42:42;;;;;;;;;20.67;19.33;;;;;22.03;47.28;101201.31;4979168;28;45334;-67
2023/05/22 09:45:08;;;;;;;;;31.33;27.67;;;;;22.08;47.15;101203.97;4999715;28;45460;-66
2023/05/22 09:47:34;;;;;;;;;22.00;19.00;;;;;22.10;47.11;101191.22;4992522;28;45313;-67
2023/05/22 09:50:03;;;;;;;;;21.67;18.33;;;;;22.11;47.13;101165.81;4978493;28;45388;-66
2023/05/22 09:52:32;;;;;;;;;17.67;14.33;;;;;22.16;47.15;101195.66;4994667;28;45535;-63
2023/05/22 09:55:03;;;;;;;;;21.33;16.67;;;;;22.17;47.14;101197.47;4996139;28;47203;-62
2023/05/22 09:57:31;;;;;;;;;20.33;14.33;;;;;22.17;47.25;101194.75;4994656;28;45582;-62
2023/05/22 09:59:58;;;;;;;;;17.33;13.33;;;;;22.14;47.25;101192.06;4995205;28;45454;-64
2023/05/22 10:02:25;;;;;;;;;80.50;41.50;;;;;22.10;47.07;101183.06;4997206;28;45436;-67
2023/05/22 10:04:51;;;;;;;;;23.67;21.00;;;;;22.21;47.52;101201.97;4967877;28;47403;-66
2023/05/22 10:07:38;;;;;;;;;21.00;19.00;;;;;22.27;47.49;101197.34;4995365;28;45516;-65
2023/05/22 10:10:10;;;;;;;;;18.67;15.33;;;;;22.34;47.27;101191.81;4997471;28;45320;-66
2023/05/22 10:12:43;;;;;;;;;30.75;27.00;;;;;22.13;47.15;101136.75;4997727;28;45383;-65
2023/05/22 10:15:10;;;;;;;;;16.00;14.67;;;;;22.51;46.95;101186.13;4996261;28;46294;-65
2023/05/22 10:17:36;;;;;;;;;19.67;17.00;;;;;22.30;46.69;101125.63;4995772;28;45421;-67
2023/05/22 10:20:06;;;;;;;;;15.33;15.33;;;;;22.62;46.35;101171.41;4994500;28;45527;-64
2023/05/22 10:22:35;;;;;;;;;27.67;25.00;;;;;22.73;46.43;101170.31;4994769;28;45448;-66
2023/05/22 10:25:01;;;;;;;;;19.67;16.00;;;;;22.74;46.32;101173.00;4992519;28;45301;-65
2023/05/22 10:27:27;;;;;;;;;24.67;17.67;;;;;22.65;46.39;101154.09;4994377;28;45314;-65
2023/05/22 10:30:34;;;;;;;;;13.67;13.00;;;;;22.80;46.37;101172.00;4977664;28;45315;-66
2023/05/22 10:33:00;;;;;;;;;15.33;14.67;;;;;22.82;45.95;101178.34;4995929;28;45659;-66
2023/05/22 10:35:54;;;;;;;;;16.00;14.67;;;;;22.84;46.31;101168.31;4995495;28;45635;-68
2023/05/22 10:38:42;;;;;;;;;19.67;18.00;;;;;22.90;46.47;101170.94;4990479;28;45931;-66
2023/05/22 10:41:09;;;;;;;;;20.67;19.00;;;;;22.89;46.47;101166.38;4993504;28;45523;-65
2023/05/22 10:43:40;;;;;;;;;22.33;18.67;;;;;22.84;46.71;101157.41;4994070;28;45444;-66
2023/05/22 10:46:06;;;;;;;;;25.00;22.33;;;;;22.89;46.67;101162.78;4990459;28;46140;-65
2023/05/22 10:48:39;;;;;;;;;15.00;15.00;;;;;22.92;46.58;101166.34;4975567;28;45455;-66
2023/05/22 10:51:07;;;;;;;;;31.50;25.75;;;;;22.87;46.48;101150.97;4991203;28;45448;-66
2023/05/22 10:53:34;;;;;;;;;24.33;21.67;;;;;22.79;46.67;101140.25;4999680;28;45455;-67
2023/05/22 10:56:12;;;;;;;;;25.00;19.67;;;;;22.92;46.64;101150.00;5002635;28;45325;-68
2023/05/22 10:58:38;;;;;;;;;14.67;13.00;;;;;22.97;46.28;101141.75;4975482;28;45465;-66
2023/05/22 11:01:11;;;;;;;;;27.67;25.67;;;;;22.95;46.64;101158.13;4993370;28;45619;-66
2023/05/22 11:03:59;;;;;;;;;24.67;21.67;;;;;22.97;46.50;101149.91;4992477;28;45408;-66
2023/05/22 11:07:01;;;;;;;;;22.33;14.33;;;;;22.94;46.80;101150.84;4993310;28;46126;-67
2023/05/22 11:09:46;;;;;;;;;28.67;19.67;;;;;22.93;46.88;101135.44;4993191;28;45484;-66
2023/05/22 11:12:26;;;;;;;;;16.67;16.00;;;;;22.82;46.87;101099.34;4988889;28;45336;-66